sensor_id;sensor_type;location;lat;lon;timestamp;pressure;altitude;pressure_sealevel;temperature;humidity
72061;BME280;59925;52.136;5.420;2022-07-19T00:01:54;102006.94;;;19.69;67.93
72061;BME280;59925;52.136;5.420;2022-07-19T00:04:20;102010.16;;;19.57;68.15
72061;BME280;59925;52.136;5.420;2022-07-19T00:06:47;102008.16;;;19.49;68.34
72061;BME280;59925;52.136;5.420;2022-07-19T00:09:15;102009.44;;;19.38;68.46
72061;BME280;59925;52.136;5.420;2022-07-19T00:11:42;102007.31;;;19.35;68.81
72061;BME280;59925;52.136;5.420;2022-07-19T00:14:08;102005.50;;;19.30;68.84
72061;BME280;59925;52.136;5.420;2022-07-19T00:16:35;102003.38;;;19.27;69.02
72061;BME280;59925;52.136;5.420;2022-07-19T00:19:01;102002.47;;;19.18;69.44
72061;BME280;59925;52.136;5.420;2022-07-19T00:21:28;102009.09;;;19.11;69.66
72061;BME280;59925;52.136;5.420;2022-07-19T00:23:54;102008.31;;;19.11;69.96
72061;BME280;59925;52.136;5.420;2022-07-19T00:26:20;102002.63;;;19.07;69.80
72061;BME280;59925;52.136;5.420;2022-07-19T00:28:47;101996.22;;;19.03;70.18
72061;BME280;59925;52.136;5.420;2022-07-19T00:31:14;102003.66;;;18.97;70.32
72061;BME280;59925;52.136;5.420;2022-07-19T00:33:40;101995.25;;;18.94;70.08
72061;BME280;59925;52.136;5.420;2022-07-19T00:36:07;102002.81;;;18.97;69.53
72061;BME280;59925;52.136;5.420;2022-07-19T00:38:33;101992.97;;;19.01;68.94
72061;BME280;59925;52.136;5.420;2022-07-19T00:41:01;101998.09;;;19.03;69.06
72061;BME280;59925;52.136;5.420;2022-07-19T00:43:28;102001.34;;;19.05;68.54
72061;BME280;59925;52.136;5.420;2022-07-19T00:45:54;102005.47;;;19.02;69.53
72061;BME280;59925;52.136;5.420;2022-07-19T00:48:21;102007.66;;;19.00;69.44
72061;BME280;59925;52.136;5.420;2022-07-19T00:50:48;102014.00;;;18.95;69.74
72061;BME280;59925;52.136;5.420;2022-07-19T00:53:15;102005.69;;;18.87;70.06
72061;BME280;59925;52.136;5.420;2022-07-19T00:55:43;102004.75;;;18.77;70.31
72061;BME280;59925;52.136;5.420;2022-07-19T00:58:10;102003.75;;;18.73;70.63
72061;BME280;59925;52.136;5.420;2022-07-19T01:00:37;102003.00;;;18.67;70.78
72061;BME280;59925;52.136;5.420;2022-07-19T01:03:06;102007.34;;;18.68;70.36
72061;BME280;59925;52.136;5.420;2022-07-19T01:05:34;102007.56;;;18.72;69.93
72061;BME280;59925;52.136;5.420;2022-07-19T01:08:01;102005.41;;;18.69;70.66
72061;BME280;59925;52.136;5.420;2022-07-19T01:10:28;101999.38;;;18.58;71.01
72061;BME280;59925;52.136;5.420;2022-07-19T01:12:55;102000.84;;;18.50;71.06
72061;BME280;59925;52.136;5.420;2022-07-19T01:15:24;102007.44;;;18.44;71.81
72061;BME280;59925;52.136;5.420;2022-07-19T01:17:52;102007.53;;;18.39;72.06
72061;BME280;59925;52.136;5.420;2022-07-19T01:20:23;102002.16;;;18.34;72.04
72061;BME280;59925;52.136;5.420;2022-07-19T01:22:55;101997.91;;;18.28;72.03
72061;BME280;59925;52.136;5.420;2022-07-19T01:25:23;102000.91;;;18.26;72.36
72061;BME280;59925;52.136;5.420;2022-07-19T01:27:50;102004.22;;;18.23;72.53
72061;BME280;59925;52.136;5.420;2022-07-19T01:30:19;101998.50;;;18.25;72.13
72061;BME280;59925;52.136;5.420;2022-07-19T01:32:48;101998.78;;;18.23;72.58
72061;BME280;59925;52.136;5.420;2022-07-19T01:35:15;101998.56;;;18.19;72.68
72061;BME280;59925;52.136;5.420;2022-07-19T01:37:42;102005.16;;;18.13;73.01
72061;BME280;59925;52.136;5.420;2022-07-19T01:40:10;102000.84;;;18.12;72.93
72061;BME280;59925;52.136;5.420;2022-07-19T01:42:38;101997.63;;;18.10;72.56
72061;BME280;59925;52.136;5.420;2022-07-19T01:45:05;102004.72;;;18.06;72.64
72061;BME280;59925;52.136;5.420;2022-07-19T01:47:32;101997.63;;;18.10;72.70
72061;BME280;59925;52.136;5.420;2022-07-19T01:49:59;102000.53;;;18.14;72.17
72061;BME280;59925;52.136;5.420;2022-07-19T01:52:25;101988.06;;;18.13;72.05
72061;BME280;59925;52.136;5.420;2022-07-19T01:54:52;101992.78;;;18.07;72.71
72061;BME280;59925;52.136;5.420;2022-07-19T01:57:18;101993.88;;;18.06;72.36
72061;BME280;59925;52.136;5.420;2022-07-19T01:59:44;101987.34;;;18.07;71.83
72061;BME280;59925;52.136;5.420;2022-07-19T02:02:11;101996.06;;;18.04;72.59
72061;BME280;59925;52.136;5.420;2022-07-19T02:04:37;101982.03;;;17.97;72.66
72061;BME280;59925;52.136;5.420;2022-07-19T02:07:04;101997.56;;;17.91;73.18
72061;BME280;59925;52.136;5.420;2022-07-19T02:09:31;101997.91;;;17.84;73.35
72061;BME280;59925;52.136;5.420;2022-07-19T02:11:58;101982.22;;;17.81;73.59
72061;BME280;59925;52.136;5.420;2022-07-19T02:14:24;101982.53;;;17.80;73.32
72061;BME280;59925;52.136;5.420;2022-07-19T02:16:51;101986.69;;;17.72;73.76
72061;BME280;59925;52.136;5.420;2022-07-19T02:19:17;101983.50;;;17.65;73.82
72061;BME280;59925;52.136;5.420;2022-07-19T02:21:44;101972.59;;;17.70;73.36
72061;BME280;59925;52.136;5.420;2022-07-19T02:24:10;101975.84;;;17.72;73.27
72061;BME280;59925;52.136;5.420;2022-07-19T02:26:37;101973.41;;;17.70;73.46
72061;BME280;59925;52.136;5.420;2022-07-19T02:29:04;101974.84;;;17.62;73.97
72061;BME280;59925;52.136;5.420;2022-07-19T02:31:31;101968.63;;;17.62;73.85
72061;BME280;59925;52.136;5.420;2022-07-19T02:33:59;101978.44;;;17.58;73.62
72061;BME280;59925;52.136;5.420;2022-07-19T02:36:25;101971.69;;;17.55;74.06
72061;BME280;59925;52.136;5.420;2022-07-19T02:38:52;101974.97;;;17.52;74.30
72061;BME280;59925;52.136;5.420;2022-07-19T02:41:19;101969.59;;;17.47;74.75
72061;BME280;59925;52.136;5.420;2022-07-19T02:43:45;101966.66;;;17.43;74.59
72061;BME280;59925;52.136;5.420;2022-07-19T02:46:11;101969.66;;;17.42;74.45
72061;BME280;59925;52.136;5.420;2022-07-19T02:48:38;101962.09;;;17.39;74.37
72061;BME280;59925;52.136;5.420;2022-07-19T02:51:09;101964.88;;;17.34;75.20
72061;BME280;59925;52.136;5.420;2022-07-19T02:53:36;101974.69;;;17.29;75.40
72061;BME280;59925;52.136;5.420;2022-07-19T02:56:03;101972.25;;;17.28;75.53
72061;BME280;59925;52.136;5.420;2022-07-19T02:58:29;101962.00;;;17.25;75.72
72061;BME280;59925;52.136;5.420;2022-07-19T03:00:56;101965.81;;;17.24;75.28
72061;BME280;59925;52.136;5.420;2022-07-19T03:03:22;101971.78;;;17.21;75.00
72061;BME280;59925;52.136;5.420;2022-07-19T03:06:07;101979.16;;;17.15;75.20
72061;BME280;59925;52.136;5.420;2022-07-19T03:08:34;101975.13;;;17.12;75.14
72061;BME280;59925;52.136;5.420;2022-07-19T03:11:00;101977.03;;;17.12;74.78
72061;BME280;59925;52.136;5.420;2022-07-19T03:13:26;101967.81;;;17.13;74.70
72061;BME280;59925;52.136;5.420;2022-07-19T03:15:54;101967.00;;;17.12;74.60
72061;BME280;59925;52.136;5.420;2022-07-19T03:18:20;101970.50;;;17.13;75.05
72061;BME280;59925;52.136;5.420;2022-07-19T03:20:47;101964.03;;;17.09;75.28
72061;BME280;59925;52.136;5.420;2022-07-19T03:23:13;101959.47;;;17.04;75.42
72061;BME280;59925;52.136;5.420;2022-07-19T03:25:40;101966.59;;;17.00;75.53
72061;BME280;59925;52.136;5.420;2022-07-19T03:28:06;101961.72;;;16.97;76.06
72061;BME280;59925;52.136;5.420;2022-07-19T03:30:33;101962.00;;;16.95;76.28
72061;BME280;59925;52.136;5.420;2022-07-19T03:32:59;101957.94;;;16.93;76.22
72061;BME280;59925;52.136;5.420;2022-07-19T03:35:26;101959.28;;;16.95;76.21
72061;BME280;59925;52.136;5.420;2022-07-19T03:37:52;101969.06;;;16.91;76.19
72061;BME280;59925;52.136;5.420;2022-07-19T03:40:19;101964.75;;;16.90;76.07
72061;BME280;59925;52.136;5.420;2022-07-19T03:42:45;101966.41;;;16.86;76.45
72061;BME280;59925;52.136;5.420;2022-07-19T03:45:12;101965.59;;;16.85;76.53
72061;BME280;59925;52.136;5.420;2022-07-19T03:47:38;101969.13;;;16.81;76.22
72061;BME280;59925;52.136;5.420;2022-07-19T03:50:05;101964.84;;;16.80;76.45
72061;BME280;59925;52.136;5.420;2022-07-19T03:52:32;101966.44;;;16.81;76.68
72061;BME280;59925;52.136;5.420;2022-07-19T03:54:58;101972.97;;;16.80;76.20
72061;BME280;59925;52.136;5.420;2022-07-19T03:57:24;101971.28;;;16.84;75.67
72061;BME280;59925;52.136;5.420;2022-07-19T03:59:51;101964.22;;;16.88;75.46
72061;BME280;59925;52.136;5.420;2022-07-19T04:02:17;101962.81;;;16.91;75.79
72061;BME280;59925;52.136;5.420;2022-07-19T04:04:44;101962.25;;;16.94;75.41
72061;BME280;59925;52.136;5.420;2022-07-19T04:07:10;101962.53;;;16.97;74.95
72061;BME280;59925;52.136;5.420;2022-07-19T04:09:36;101969.84;;;16.97;75.60
72061;BME280;59925;52.136;5.420;2022-07-19T04:12:03;101967.69;;;16.94;75.92
72061;BME280;59925;52.136;5.420;2022-07-19T04:14:29;101967.97;;;16.92;75.68
72061;BME280;59925;52.136;5.420;2022-07-19T04:16:56;101968.25;;;16.96;75.31
72061;BME280;59925;52.136;5.420;2022-07-19T04:19:22;101967.16;;;16.97;75.77
72061;BME280;59925;52.136;5.420;2022-07-19T04:21:49;101972.56;;;16.97;75.78
72061;BME280;59925;52.136;5.420;2022-07-19T04:24:15;101964.44;;;16.97;75.91
72061;BME280;59925;52.136;5.420;2022-07-19T04:26:41;101962.53;;;16.97;75.99
72061;BME280;59925;52.136;5.420;2022-07-19T04:29:08;101977.69;;;16.98;76.17
72061;BME280;59925;52.136;5.420;2022-07-19T04:31:34;101967.94;;;16.97;76.21
72061;BME280;59925;52.136;5.420;2022-07-19T04:34:01;101965.75;;;16.99;76.09
72061;BME280;59925;52.136;5.420;2022-07-19T04:36:28;101970.31;;;17.04;75.89
72061;BME280;59925;52.136;5.420;2022-07-19T04:38:54;101959.22;;;17.06;76.13
72061;BME280;59925;52.136;5.420;2022-07-19T04:41:21;101958.91;;;17.07;76.37
72061;BME280;59925;52.136;5.420;2022-07-19T04:43:47;101956.66;;;17.14;75.64
72061;BME280;59925;52.136;5.420;2022-07-19T04:46:13;101957.69;;;17.24;75.42
72061;BME280;59925;52.136;5.420;2022-07-19T04:48:40;101956.81;;;17.28;75.32
72061;BME280;59925;52.136;5.420;2022-07-19T04:51:07;101957.59;;;17.29;75.98
72061;BME280;59925;52.136;5.420;2022-07-19T04:53:33;101954.84;;;17.34;75.89
72061;BME280;59925;52.136;5.420;2022-07-19T04:56:05;101957.72;;;17.43;75.11
72061;BME280;59925;52.136;5.420;2022-07-19T04:58:31;101963.03;;;17.53;74.93
72061;BME280;59925;52.136;5.420;2022-07-19T05:00:57;101962.16;;;17.58;75.00
72061;BME280;59925;52.136;5.420;2022-07-19T05:03:24;101964.53;;;17.65;75.01
72061;BME280;59925;52.136;5.420;2022-07-19T05:05:50;101966.34;;;17.69;75.35
72061;BME280;59925;52.136;5.420;2022-07-19T05:08:17;101951.69;;;17.70;75.53
72061;BME280;59925;52.136;5.420;2022-07-19T05:10:43;101955.16;;;17.76;75.30
72061;BME280;59925;52.136;5.420;2022-07-19T05:13:10;101960.75;;;17.85;74.97
72061;BME280;59925;52.136;5.420;2022-07-19T05:15:36;101966.91;;;17.90;75.25
72061;BME280;59925;52.136;5.420;2022-07-19T05:18:03;101960.41;;;18.11;74.73
72061;BME280;59925;52.136;5.420;2022-07-19T05:20:29;101960.69;;;18.47;73.33
72061;BME280;59925;52.136;5.420;2022-07-19T05:22:56;101954.38;;;18.52;72.54
72061;BME280;59925;52.136;5.420;2022-07-19T05:25:22;101949.63;;;18.77;72.78
72061;BME280;59925;52.136;5.420;2022-07-19T05:27:49;101950.22;;;19.07;72.04
72061;BME280;59925;52.136;5.420;2022-07-19T05:30:16;101944.69;;;19.12;70.79
72061;BME280;59925;52.136;5.420;2022-07-19T05:32:42;101953.94;;;19.11;70.44
72061;BME280;59925;52.136;5.420;2022-07-19T05:35:09;101950.53;;;19.05;70.45
72061;BME280;59925;52.136;5.420;2022-07-19T05:37:36;101950.81;;;19.04;70.72
72061;BME280;59925;52.136;5.420;2022-07-19T05:40:03;101947.50;;;19.21;70.95
72061;BME280;59925;52.136;5.420;2022-07-19T05:42:29;101948.81;;;20.16;69.89
72061;BME280;59925;52.136;5.420;2022-07-19T05:44:56;101948.53;;;21.35;67.18
72061;BME280;59925;52.136;5.420;2022-07-19T05:47:22;101938.63;;;22.79;63.62
72061;BME280;59925;52.136;5.420;2022-07-19T05:49:48;101937.91;;;23.90;59.55
72061;BME280;59925;52.136;5.420;2022-07-19T05:52:15;101941.75;;;24.65;57.05
72061;BME280;59925;52.136;5.420;2022-07-19T05:54:41;101949.03;;;25.19;55.55
72061;BME280;59925;52.136;5.420;2022-07-19T05:57:08;101946.47;;;25.76;54.30
72061;BME280;59925;52.136;5.420;2022-07-19T05:59:34;101948.97;;;26.22;53.60
72061;BME280;59925;52.136;5.420;2022-07-19T06:02:02;101944.03;;;26.60;51.85
72061;BME280;59925;52.136;5.420;2022-07-19T06:04:29;101938.69;;;26.80;51.32
72061;BME280;59925;52.136;5.420;2022-07-19T06:06:55;101940.38;;;27.16;50.87
72061;BME280;59925;52.136;5.420;2022-07-19T06:09:22;101944.38;;;27.55;49.88
72061;BME280;59925;52.136;5.420;2022-07-19T06:11:48;101946.63;;;27.49;49.69
72061;BME280;59925;52.136;5.420;2022-07-19T06:14:16;101944.84;;;27.76;49.60
72061;BME280;59925;52.136;5.420;2022-07-19T06:16:42;101939.69;;;27.94;49.24
72061;BME280;59925;52.136;5.420;2022-07-19T06:19:09;101943.75;;;28.01;49.25
72061;BME280;59925;52.136;5.420;2022-07-19T06:21:38;101942.69;;;28.25;48.03
72061;BME280;59925;52.136;5.420;2022-07-19T06:24:04;101942.25;;;28.46;48.14
72061;BME280;59925;52.136;5.420;2022-07-19T06:26:31;101945.34;;;28.41;48.11
72061;BME280;59925;52.136;5.420;2022-07-19T06:28:58;101946.88;;;28.62;46.83
72061;BME280;59925;52.136;5.420;2022-07-19T06:31:24;101940.94;;;28.83;47.06
72061;BME280;59925;52.136;5.420;2022-07-19T06:33:52;101942.97;;;28.86;46.07
72061;BME280;59925;52.136;5.420;2022-07-19T06:36:19;101946.66;;;29.20;44.20
72061;BME280;59925;52.136;5.420;2022-07-19T06:38:46;101938.34;;;29.44;42.13
72061;BME280;59925;52.136;5.420;2022-07-19T06:41:14;101941.91;;;29.21;41.09
72061;BME280;59925;52.136;5.420;2022-07-19T06:43:40;101942.72;;;29.21;39.71
72061;BME280;59925;52.136;5.420;2022-07-19T06:46:07;101939.81;;;29.11;39.88
72061;BME280;59925;52.136;5.420;2022-07-19T06:48:34;101938.13;;;29.02;39.04
72061;BME280;59925;52.136;5.420;2022-07-19T06:51:01;101939.03;;;29.10;39.89
72061;BME280;59925;52.136;5.420;2022-07-19T06:53:27;101939.81;;;29.38;39.70
72061;BME280;59925;52.136;5.420;2022-07-19T06:55:54;101946.94;;;29.69;38.49
72061;BME280;59925;52.136;5.420;2022-07-19T06:58:20;101939.50;;;29.73;37.75
72061;BME280;59925;52.136;5.420;2022-07-19T07:00:46;101943.72;;;29.63;38.00
72061;BME280;59925;52.136;5.420;2022-07-19T07:03:15;101941.59;;;29.84;38.17
72061;BME280;59925;52.136;5.420;2022-07-19T07:05:44;101940.47;;;29.88;37.94
72061;BME280;59925;52.136;5.420;2022-07-19T07:08:11;101936.56;;;29.93;36.46
72061;BME280;59925;52.136;5.420;2022-07-19T07:10:37;101935.25;;;29.49;37.44
72061;BME280;59925;52.136;5.420;2022-07-19T07:13:06;101934.94;;;28.77;39.65
72061;BME280;59925;52.136;5.420;2022-07-19T07:15:32;101933.38;;;28.33;41.84
72061;BME280;59925;52.136;5.420;2022-07-19T07:17:59;101930.25;;;27.95;42.90
72061;BME280;59925;52.136;5.420;2022-07-19T07:20:25;101927.31;;;27.84;41.85
72061;BME280;59925;52.136;5.420;2022-07-19T07:22:52;101924.59;;;27.49;43.48
72061;BME280;59925;52.136;5.420;2022-07-19T07:25:18;101919.44;;;27.47;43.67
72061;BME280;59925;52.136;5.420;2022-07-19T07:27:45;101924.28;;;27.54;43.55
72061;BME280;59925;52.136;5.420;2022-07-19T07:30:11;101924.53;;;27.65;44.33
72061;BME280;59925;52.136;5.420;2022-07-19T07:32:38;101927.31;;;27.84;45.07
72061;BME280;59925;52.136;5.420;2022-07-19T07:35:05;101928.88;;;27.86;44.10
72061;BME280;59925;52.136;5.420;2022-07-19T07:37:31;101922.09;;;27.79;41.69
72061;BME280;59925;52.136;5.420;2022-07-19T07:39:58;101922.69;;;27.53;43.86
72061;BME280;59925;52.136;5.420;2022-07-19T07:42:24;101919.59;;;27.74;42.41
72061;BME280;59925;52.136;5.420;2022-07-19T07:44:52;101925.34;;;27.85;42.61
72061;BME280;59925;52.136;5.420;2022-07-19T07:47:19;101923.69;;;27.80;43.26
72061;BME280;59925;52.136;5.420;2022-07-19T07:49:45;101919.63;;;27.94;43.26
72061;BME280;59925;52.136;5.420;2022-07-19T07:52:12;101924.91;;;28.03;43.98
72061;BME280;59925;52.136;5.420;2022-07-19T07:54:38;101912.44;;;28.09;44.04
72061;BME280;59925;52.136;5.420;2022-07-19T07:57:25;101917.28;;;28.35;42.35
72061;BME280;59925;52.136;5.420;2022-07-19T07:59:52;101917.75;;;28.41;40.38
72061;BME280;59925;52.136;5.420;2022-07-19T08:02:19;101904.22;;;28.32;39.50
72061;BME280;59925;52.136;5.420;2022-07-19T08:04:46;101906.78;;;28.44;39.28
72061;BME280;59925;52.136;5.420;2022-07-19T08:07:12;101909.59;;;28.48;39.69
72061;BME280;59925;52.136;5.420;2022-07-19T08:09:39;101911.63;;;28.51;39.32
72061;BME280;59925;52.136;5.420;2022-07-19T08:12:06;101908.81;;;28.71;38.91
72061;BME280;59925;52.136;5.420;2022-07-19T08:14:32;101911.72;;;29.05;40.39
72061;BME280;59925;52.136;5.420;2022-07-19T08:16:58;101909.72;;;29.32;39.00
72061;BME280;59925;52.136;5.420;2022-07-19T08:19:25;101910.72;;;29.44;39.99
72061;BME280;59925;52.136;5.420;2022-07-19T08:21:52;101912.63;;;29.70;38.20
72061;BME280;59925;52.136;5.420;2022-07-19T08:24:18;101905.59;;;29.76;40.70
72061;BME280;59925;52.136;5.420;2022-07-19T08:26:45;101908.09;;;29.89;38.76
72061;BME280;59925;52.136;5.420;2022-07-19T08:29:11;101915.13;;;29.82;38.37
72061;BME280;59925;52.136;5.420;2022-07-19T08:31:38;101908.22;;;30.00;39.17
72061;BME280;59925;52.136;5.420;2022-07-19T08:34:05;101904.03;;;30.13;38.73
72061;BME280;59925;52.136;5.420;2022-07-19T08:36:32;101902.97;;;30.25;37.92
72061;BME280;59925;52.136;5.420;2022-07-19T08:38:58;101897.50;;;30.32;36.56
72061;BME280;59925;52.136;5.420;2022-07-19T08:41:25;101893.56;;;30.33;36.57
72061;BME280;59925;52.136;5.420;2022-07-19T08:43:51;101894.50;;;30.48;36.67
72061;BME280;59925;52.136;5.420;2022-07-19T08:46:21;101894.66;;;30.63;35.81
72061;BME280;59925;52.136;5.420;2022-07-19T08:48:48;101894.03;;;30.87;35.51
72061;BME280;59925;52.136;5.420;2022-07-19T08:51:20;101887.78;;;31.05;34.90
72061;BME280;59925;52.136;5.420;2022-07-19T08:53:48;101879.78;;;30.89;35.28
72061;BME280;59925;52.136;5.420;2022-07-19T08:56:16;101873.63;;;31.14;35.46
72061;BME280;59925;52.136;5.420;2022-07-19T08:59:02;101876.56;;;31.50;33.19
72061;BME280;59925;52.136;5.420;2022-07-19T09:01:29;101870.31;;;31.71;34.27
72061;BME280;59925;52.136;5.420;2022-07-19T09:04:08;101873.13;;;31.86;32.75
72061;BME280;59925;52.136;5.420;2022-07-19T09:07:01;101868.41;;;31.86;33.51
72061;BME280;59925;52.136;5.420;2022-07-19T09:09:31;101876.72;;;31.90;32.87
72061;BME280;59925;52.136;5.420;2022-07-19T09:11:59;101872.41;;;32.14;32.02
72061;BME280;59925;52.136;5.420;2022-07-19T09:19:34;101877.16;;;32.24;32.50
72061;BME280;59925;52.136;5.420;2022-07-19T09:22:09;101866.88;;;32.68;33.46
72061;BME280;59925;52.136;5.420;2022-07-19T09:24:42;101863.25;;;32.97;32.23
72061;BME280;59925;52.136;5.420;2022-07-19T09:27:14;101869.97;;;33.14;31.89
72061;BME280;59925;52.136;5.420;2022-07-19T09:29:46;101867.53;;;33.34;31.43
72061;BME280;59925;52.136;5.420;2022-07-19T09:32:17;101871.13;;;33.27;30.74
72061;BME280;59925;52.136;5.420;2022-07-19T09:34:58;101863.56;;;33.28;31.08
72061;BME280;59925;52.136;5.420;2022-07-19T09:37:30;101866.81;;;33.08;30.57
72061;BME280;59925;52.136;5.420;2022-07-19T09:40:02;101865.16;;;33.22;30.99
72061;BME280;59925;52.136;5.420;2022-07-19T09:42:41;101857.50;;;33.55;31.15
72061;BME280;59925;52.136;5.420;2022-07-19T09:45:12;101858.50;;;33.90;30.15
72061;BME280;59925;52.136;5.420;2022-07-19T09:47:44;101850.41;;;34.14;31.13
72061;BME280;59925;52.136;5.420;2022-07-19T09:50:13;101858.22;;;34.30;29.36
72061;BME280;59925;52.136;5.420;2022-07-19T09:52:41;101853.34;;;34.45;29.01
72061;BME280;59925;52.136;5.420;2022-07-19T09:55:14;101853.81;;;34.32;28.86
72061;BME280;59925;52.136;5.420;2022-07-19T09:57:43;101853.31;;;34.48;26.53
72061;BME280;59925;52.136;5.420;2022-07-19T10:00:14;101847.88;;;34.30;26.71
72061;BME280;59925;52.136;5.420;2022-07-19T10:02:43;101844.94;;;34.48;27.27
72061;BME280;59925;52.136;5.420;2022-07-19T10:05:11;101842.06;;;34.59;26.49
72061;BME280;59925;52.136;5.420;2022-07-19T10:07:39;101845.03;;;34.41;27.46
72061;BME280;59925;52.136;5.420;2022-07-19T10:10:11;101840.28;;;34.34;27.25
72061;BME280;59925;52.136;5.420;2022-07-19T10:12:40;101842.06;;;34.59;27.41
72061;BME280;59925;52.136;5.420;2022-07-19T10:15:08;101835.16;;;34.75;27.38
72061;BME280;59925;52.136;5.420;2022-07-19T10:18:04;101825.56;;;35.14;28.04
72061;BME280;59925;52.136;5.420;2022-07-19T10:20:34;101833.97;;;35.41;27.55
72061;BME280;59925;52.136;5.420;2022-07-19T10:23:02;101826.66;;;35.24;26.42
72061;BME280;59925;52.136;5.420;2022-07-19T10:25:46;101819.94;;;35.18;26.56
72061;BME280;59925;52.136;5.420;2022-07-19T10:28:35;101825.19;;;35.12;28.21
72061;BME280;59925;52.136;5.420;2022-07-19T10:31:26;101822.25;;;35.54;26.91
72061;BME280;59925;52.136;5.420;2022-07-19T10:34:02;101822.06;;;35.68;26.20
72061;BME280;59925;52.136;5.420;2022-07-19T10:36:35;101811.53;;;35.52;26.19
72061;BME280;59925;52.136;5.420;2022-07-19T10:44:34;101808.66;;;36.11;26.66
72061;BME280;59925;52.136;5.420;2022-07-19T10:47:01;101801.44;;;36.37;25.96
72061;BME280;59925;52.136;5.420;2022-07-19T10:49:41;101796.50;;;36.21;24.51
72061;BME280;59925;52.136;5.420;2022-07-19T10:57:38;101792.75;;;36.31;25.03
72061;BME280;59925;52.136;5.420;2022-07-19T11:00:29;101792.75;;;36.31;23.90
72061;BME280;59925;52.136;5.420;2022-07-19T11:05:56;101787.88;;;36.35;23.46
72061;BME280;59925;52.136;5.420;2022-07-19T11:08:34;101794.06;;;36.47;23.58
72061;BME280;59925;52.136;5.420;2022-07-19T11:11:03;101784.00;;;36.73;23.04
72061;BME280;59925;52.136;5.420;2022-07-19T11:13:30;101790.03;;;36.92;24.12
72061;BME280;59925;52.136;5.420;2022-07-19T11:15:57;101783.78;;;36.84;24.02
72061;BME280;59925;52.136;5.420;2022-07-19T11:18:24;101782.63;;;37.38;23.06
72061;BME280;59925;52.136;5.420;2022-07-19T11:20:50;101777.28;;;37.27;22.70
72061;BME280;59925;52.136;5.420;2022-07-19T11:23:18;101774.38;;;37.51;24.04
72061;BME280;59925;52.136;5.420;2022-07-19T11:25:45;101774.34;;;37.84;22.96
72061;BME280;59925;52.136;5.420;2022-07-19T11:28:23;101766.16;;;37.61;22.22
72061;BME280;59925;52.136;5.420;2022-07-19T11:30:50;101773.31;;;37.62;21.94
72061;BME280;59925;52.136;5.420;2022-07-19T11:33:20;101764.59;;;37.60;22.80
72061;BME280;59925;52.136;5.420;2022-07-19T11:35:57;101761.94;;;37.85;22.92
72061;BME280;59925;52.136;5.420;2022-07-19T11:41:17;101750.31;;;37.87;23.23
72061;BME280;59925;52.136;5.420;2022-07-19T11:43:58;101754.06;;;38.13;22.63
72061;BME280;59925;52.136;5.420;2022-07-19T11:46:30;101751.28;;;38.26;22.18
72061;BME280;59925;52.136;5.420;2022-07-19T11:49:01;101750.97;;;38.54;20.72
72061;BME280;59925;52.136;5.420;2022-07-19T11:51:29;101748.19;;;38.54;22.13
72061;BME280;59925;52.136;5.420;2022-07-19T11:53:57;101748.81;;;38.45;22.19
72061;BME280;59925;52.136;5.420;2022-07-19T11:56:30;101749.16;;;38.47;22.62
72061;BME280;59925;52.136;5.420;2022-07-19T11:58:59;101738.44;;;38.71;22.49
72061;BME280;59925;52.136;5.420;2022-07-19T12:01:29;101742.59;;;38.67;21.96
72061;BME280;59925;52.136;5.420;2022-07-19T12:04:01;101740.59;;;38.80;20.64
72061;BME280;59925;52.136;5.420;2022-07-19T12:09:05;101731.84;;;38.78;21.16
72061;BME280;59925;52.136;5.420;2022-07-19T12:11:39;101730.78;;;38.88;21.59
72061;BME280;59925;52.136;5.420;2022-07-19T12:14:42;101720.34;;;38.46;20.72
72061;BME280;59925;52.136;5.420;2022-07-19T12:17:18;101721.91;;;38.77;21.62
72061;BME280;59925;52.136;5.420;2022-07-19T12:19:48;101719.97;;;38.74;20.53
72061;BME280;59925;52.136;5.420;2022-07-19T12:22:29;101716.88;;;38.98;20.55
72061;BME280;59925;52.136;5.420;2022-07-19T12:24:56;101714.84;;;38.85;19.21
72061;BME280;59925;52.136;5.420;2022-07-19T12:27:27;101711.69;;;38.70;19.08
72061;BME280;59925;52.136;5.420;2022-07-19T12:29:55;101706.50;;;38.69;20.26
72061;BME280;59925;52.136;5.420;2022-07-19T12:32:33;101703.75;;;39.20;20.20
72061;BME280;59925;52.136;5.420;2022-07-19T12:35:03;101698.59;;;38.93;18.97
72061;BME280;59925;52.136;5.420;2022-07-19T12:37:36;101704.63;;;39.17;18.02
72061;BME280;59925;52.136;5.420;2022-07-19T12:40:07;101699.81;;;39.18;18.09
72061;BME280;59925;52.136;5.420;2022-07-19T12:42:36;101697.03;;;39.18;19.06
72061;BME280;59925;52.136;5.420;2022-07-19T12:45:04;101695.44;;;39.17;19.07
72061;BME280;59925;52.136;5.420;2022-07-19T12:47:31;101684.91;;;39.34;19.42
72061;BME280;59925;52.136;5.420;2022-07-19T12:50:04;101687.38;;;39.19;18.25
72061;BME280;59925;52.136;5.420;2022-07-19T12:52:37;101678.28;;;39.41;18.34
72061;BME280;59925;52.136;5.420;2022-07-19T12:55:04;101678.31;;;39.28;20.04
72061;BME280;59925;52.136;5.420;2022-07-19T12:57:30;101674.28;;;39.64;18.85
72061;BME280;59925;52.136;5.420;2022-07-19T12:59:59;101666.38;;;39.49;19.37
72061;BME280;59925;52.136;5.420;2022-07-19T13:02:26;101667.88;;;39.76;19.14
72061;BME280;59925;52.136;5.420;2022-07-19T13:04:52;101678.47;;;39.94;18.53
72061;BME280;59925;52.136;5.420;2022-07-19T13:07:18;101666.56;;;39.90;18.25
72061;BME280;59925;52.136;5.420;2022-07-19T13:09:45;101663.53;;;40.20;17.61
72061;BME280;59925;52.136;5.420;2022-07-19T13:12:11;101666.56;;;39.90;17.63
72061;BME280;59925;52.136;5.420;2022-07-19T13:14:38;101667.16;;;39.85;18.64
72061;BME280;59925;52.136;5.420;2022-07-19T13:17:05;101646.16;;;40.12;17.35
72061;BME280;59925;52.136;5.420;2022-07-19T13:19:32;101656.78;;;40.39;18.40
72061;BME280;59925;52.136;5.420;2022-07-19T13:21:59;101644.22;;;40.53;17.99